sensor_id;sensor_type;location;lat;lon;timestamp;P1;durP1;ratioP1;P2;durP2;ratioP2
64235;SDS011;50564;47.402;9.740;2024-01-27T00:04:57;3.75;;;1.45;;
64235;SDS011;50564;47.402;9.740;2024-01-27T00:09:58;3.58;;;1.10;;
64235;SDS011;50564;47.402;9.740;2024-01-27T00:15:00;3.55;;;1.10;;
64235;SDS011;50564;47.402;9.740;2024-01-27T00:20:00;1.80;;;1.13;;
64235;SDS011;50564;47.402;9.740;2024-01-27T00:25:01;3.65;;;1.30;;
64235;SDS011;50564;47.402;9.740;2024-01-27T00:30:02;3.40;;;1.42;;
64235;SDS011;50564;47.402;9.740;2024-01-27T00:35:04;2.92;;;1.27;;
64235;SDS011;50564;47.402;9.740;2024-01-27T00:40:07;3.35;;;1.50;;
64235;SDS011;50564;47.402;9.740;2024-01-27T00:45:09;4.15;;;1.40;;
64235;SDS011;50564;47.402;9.740;2024-01-27T00:50:10;2.08;;;1.20;;
64235;SDS011;50564;47.402;9.740;2024-01-27T00:55:11;2.53;;;1.33;;
64235;SDS011;50564;47.402;9.740;2024-01-27T01:00:12;5.90;;;1.30;;
64235;SDS011;50564;47.402;9.740;2024-01-27T01:05:13;5.18;;;2.67;;
64235;SDS011;50564;47.402;9.740;2024-01-27T01:10:14;7.13;;;1.55;;
64235;SDS011;50564;47.402;9.740;2024-01-27T01:15:15;1.85;;;1.00;;
64235;SDS011;50564;47.402;9.740;2024-01-27T01:20:15;3.42;;;1.40;;
64235;SDS011;50564;47.402;9.740;2024-01-27T01:25:16;2.88;;;1.02;;
64235;SDS011;50564;47.402;9.740;2024-01-27T01:30:16;4.35;;;1.27;;
64235;SDS011;50564;47.402;9.740;2024-01-27T01:35:17;4.35;;;1.30;;
64235;SDS011;50564;47.402;9.740;2024-01-27T01:40:18;1.60;;;1.02;;
64235;SDS011;50564;47.402;9.740;2024-01-27T01:45:18;3.10;;;1.55;;
64235;SDS011;50564;47.402;9.740;2024-01-27T01:50:20;5.30;;;1.25;;
64235;SDS011;50564;47.402;9.740;2024-01-27T01:55:21;3.97;;;1.00;;
64235;SDS011;50564;47.402;9.740;2024-01-27T02:00:21;4.80;;;1.65;;
64235;SDS011;50564;47.402;9.740;2024-01-27T02:05:22;6.70;;;1.75;;
64235;SDS011;50564;47.402;9.740;2024-01-27T02:10:22;1.88;;;1.02;;
64235;SDS011;50564;47.402;9.740;2024-01-27T02:15:23;3.25;;;1.48;;
64235;SDS011;50564;47.402;9.740;2024-01-27T02:20:25;2.95;;;1.33;;
64235;SDS011;50564;47.402;9.740;2024-01-27T02:25:25;1.95;;;1.05;;
64235;SDS011;50564;47.402;9.740;2024-01-27T02:30:26;4.38;;;1.27;;
64235;SDS011;50564;47.402;9.740;2024-01-27T02:35:26;2.45;;;1.00;;
64235;SDS011;50564;47.402;9.740;2024-01-27T02:40:27;5.60;;;1.73;;
64235;SDS011;50564;47.402;9.740;2024-01-27T02:45:28;2.78;;;1.35;;
64235;SDS011;50564;47.402;9.740;2024-01-27T02:50:28;3.65;;;1.40;;
64235;SDS011;50564;47.402;9.740;2024-01-27T02:55:29;3.50;;;1.17;;
64235;SDS011;50564;47.402;9.740;2024-01-27T03:00:29;4.50;;;1.40;;
64235;SDS011;50564;47.402;9.740;2024-01-27T03:05:30;2.00;;;1.20;;
64235;SDS011;50564;47.402;9.740;2024-01-27T03:10:31;3.00;;;1.50;;
64235;SDS011;50564;47.402;9.740;2024-01-27T03:15:31;4.13;;;1.35;;
64235;SDS011;50564;47.402;9.740;2024-01-27T03:20:32;5.18;;;1.55;;
64235;SDS011;50564;47.402;9.740;2024-01-27T03:25:33;2.70;;;1.58;;
64235;SDS011;50564;47.402;9.740;2024-01-27T03:30:33;3.15;;;1.67;;
64235;SDS011;50564;47.402;9.740;2024-01-27T03:35:34;3.75;;;1.45;;
64235;SDS011;50564;47.402;9.740;2024-01-27T03:40:34;3.60;;;1.40;;
64235;SDS011;50564;47.402;9.740;2024-01-27T03:45:35;4.85;;;1.33;;
64235;SDS011;50564;47.402;9.740;2024-01-27T03:50:36;4.75;;;1.33;;
64235;SDS011;50564;47.402;9.740;2024-01-27T03:55:36;4.00;;;1.75;;
64235;SDS011;50564;47.402;9.740;2024-01-27T04:00:37;2.60;;;1.52;;
64235;SDS011;50564;47.402;9.740;2024-01-27T04:05:38;2.45;;;1.38;;
64235;SDS011;50564;47.402;9.740;2024-01-27T04:10:38;7.22;;;2.05;;
64235;SDS011;50564;47.402;9.740;2024-01-27T04:15:39;3.25;;;1.35;;
64235;SDS011;50564;47.402;9.740;2024-01-27T04:20:39;3.95;;;1.48;;
64235;SDS011;50564;47.402;9.740;2024-01-27T04:25:40;5.03;;;1.80;;
64235;SDS011;50564;47.402;9.740;2024-01-27T04:30:41;4.25;;;1.65;;
64235;SDS011;50564;47.402;9.740;2024-01-27T04:35:42;3.28;;;1.52;;
64235;SDS011;50564;47.402;9.740;2024-01-27T04:40:42;4.45;;;1.40;;
64235;SDS011;50564;47.402;9.740;2024-01-27T04:45:43;5.57;;;1.63;;
64235;SDS011;50564;47.402;9.740;2024-01-27T04:50:44;2.92;;;1.50;;
64235;SDS011;50564;47.402;9.740;2024-01-27T04:55:44;4.63;;;1.65;;
64235;SDS011;50564;47.402;9.740;2024-01-27T05:00:45;4.40;;;1.92;;
64235;SDS011;50564;47.402;9.740;2024-01-27T05:05:46;3.47;;;1.30;;
64235;SDS011;50564;47.402;9.740;2024-01-27T05:10:46;2.95;;;1.58;;
64235;SDS011;50564;47.402;9.740;2024-01-27T05:15:47;3.42;;;1.70;;
64235;SDS011;50564;47.402;9.740;2024-01-27T05:20:48;3.10;;;1.90;;
64235;SDS011;50564;47.402;9.740;2024-01-27T05:25:49;3.38;;;2.17;;
64235;SDS011;50564;47.402;9.740;2024-01-27T05:30:49;5.82;;;3.03;;
64235;SDS011;50564;47.402;9.740;2024-01-27T05:35:50;21.83;;;11.90;;
64235;SDS011;50564;47.402;9.740;2024-01-27T05:40:50;26.92;;;15.57;;
64235;SDS011;50564;47.402;9.740;2024-01-27T05:45:51;8.70;;;3.90;;
64235;SDS011;50564;47.402;9.740;2024-01-27T05:50:58;20.55;;;12.13;;
64235;SDS011;50564;47.402;9.740;2024-01-27T05:55:59;28.33;;;14.60;;
64235;SDS011;50564;47.402;9.740;2024-01-27T06:01:00;26.13;;;11.68;;
64235;SDS011;50564;47.402;9.740;2024-01-27T06:06:00;11.93;;;6.05;;
64235;SDS011;50564;47.402;9.740;2024-01-27T06:11:01;6.13;;;3.28;;
64235;SDS011;50564;47.402;9.740;2024-01-27T06:16:06;8.07;;;3.92;;
64235;SDS011;50564;47.402;9.740;2024-01-27T06:21:09;5.88;;;4.10;;
64235;SDS011;50564;47.402;9.740;2024-01-27T06:26:12;6.97;;;4.05;;
64235;SDS011;50564;47.402;9.740;2024-01-27T06:31:13;10.98;;;6.30;;
64235;SDS011;50564;47.402;9.740;2024-01-27T06:36:16;9.90;;;4.63;;
64235;SDS011;50564;47.402;9.740;2024-01-27T06:41:16;6.53;;;3.10;;
64235;SDS011;50564;47.402;9.740;2024-01-27T06:46:17;6.07;;;3.35;;
64235;SDS011;50564;47.402;9.740;2024-01-27T06:51:17;5.90;;;3.40;;
64235;SDS011;50564;47.402;9.740;2024-01-27T06:56:18;5.00;;;2.40;;
64235;SDS011;50564;47.402;9.740;2024-01-27T07:01:19;4.03;;;2.28;;
64235;SDS011;50564;47.402;9.740;2024-01-27T07:06:19;6.03;;;2.88;;
64235;SDS011;50564;47.402;9.740;2024-01-27T07:11:20;4.32;;;2.80;;
64235;SDS011;50564;47.402;9.740;2024-01-27T07:16:20;7.57;;;3.35;;
64235;SDS011;50564;47.402;9.740;2024-01-27T07:21:21;8.93;;;3.50;;
64235;SDS011;50564;47.402;9.740;2024-01-27T07:26:21;5.75;;;3.13;;
64235;SDS011;50564;47.402;9.740;2024-01-27T07:31:22;6.10;;;2.95;;
64235;SDS011;50564;47.402;9.740;2024-01-27T07:36:24;5.88;;;2.80;;
64235;SDS011;50564;47.402;9.740;2024-01-27T07:41:26;7.30;;;2.80;;
64235;SDS011;50564;47.402;9.740;2024-01-27T07:46:27;6.35;;;3.47;;
64235;SDS011;50564;47.402;9.740;2024-01-27T07:51:27;9.77;;;2.88;;
64235;SDS011;50564;47.402;9.740;2024-01-27T07:56:28;5.63;;;2.15;;
64235;SDS011;50564;47.402;9.740;2024-01-27T08:01:29;4.30;;;2.10;;
64235;SDS011;50564;47.402;9.740;2024-01-27T08:06:29;5.18;;;2.47;;
64235;SDS011;50564;47.402;9.740;2024-01-27T08:11:30;10.48;;;4.00;;
64235;SDS011;50564;47.402;9.740;2024-01-27T08:16:31;7.22;;;3.08;;
64235;SDS011;50564;47.402;9.740;2024-01-27T08:21:31;5.88;;;3.63;;
64235;SDS011;50564;47.402;9.740;2024-01-27T08:26:32;4.35;;;2.92;;
64235;SDS011;50564;47.402;9.740;2024-01-27T08:31:32;8.25;;;3.92;;
64235;SDS011;50564;47.402;9.740;2024-01-27T08:36:34;8.18;;;4.70;;
64235;SDS011;50564;47.402;9.740;2024-01-27T08:41:34;10.48;;;5.20;;
64235;SDS011;50564;47.402;9.740;2024-01-27T08:46:35;13.48;;;8.10;;
64235;SDS011;50564;47.402;9.740;2024-01-27T08:51:36;7.30;;;4.68;;
64235;SDS011;50564;47.402;9.740;2024-01-27T08:56:40;7.82;;;3.40;;
64235;SDS011;50564;47.402;9.740;2024-01-27T09:01:41;4.75;;;2.72;;
64235;SDS011;50564;47.402;9.740;2024-01-27T09:06:42;5.85;;;2.63;;
64235;SDS011;50564;47.402;9.740;2024-01-27T09:11:42;5.10;;;2.42;;
64235;SDS011;50564;47.402;9.740;2024-01-27T09:16:43;3.72;;;2.25;;
64235;SDS011;50564;47.402;9.740;2024-01-27T09:21:46;1.70;;;1.60;;
64235;SDS011;50564;47.402;9.740;2024-01-27T09:26:46;13.23;;;8.93;;
64235;SDS011;50564;47.402;9.740;2024-01-27T09:31:47;20.67;;;12.95;;
64235;SDS011;50564;47.402;9.740;2024-01-27T09:36:48;16.80;;;9.38;;
64235;SDS011;50564;47.402;9.740;2024-01-27T09:41:48;13.30;;;8.50;;
64235;SDS011;50564;47.402;9.740;2024-01-27T09:46:50;17.42;;;9.55;;
64235;SDS011;50564;47.402;9.740;2024-01-27T09:51:50;10.68;;;6.32;;
64235;SDS011;50564;47.402;9.740;2024-01-27T09:56:51;10.95;;;6.47;;
64235;SDS011;50564;47.402;9.740;2024-01-27T10:01:52;10.05;;;6.40;;
64235;SDS011;50564;47.402;9.740;2024-01-27T10:06:53;9.52;;;6.28;;
64235;SDS011;50564;47.402;9.740;2024-01-27T10:11:53;11.70;;;6.18;;
64235;SDS011;50564;47.402;9.740;2024-01-27T10:16:54;8.93;;;6.43;;
64235;SDS011;50564;47.402;9.740;2024-01-27T10:22:00;12.15;;;7.07;;
64235;SDS011;50564;47.402;9.740;2024-01-27T10:27:01;9.82;;;4.75;;
64235;SDS011;50564;47.402;9.740;2024-01-27T10:32:09;8.85;;;5.28;;
64235;SDS011;50564;47.402;9.740;2024-01-27T10:37:13;10.93;;;6.07;;
64235;SDS011;50564;47.402;9.740;2024-01-27T10:42:14;11.02;;;6.20;;
64235;SDS011;50564;47.402;9.740;2024-01-27T10:47:15;12.75;;;5.82;;
64235;SDS011;50564;47.402;9.740;2024-01-27T10:52:19;7.65;;;4.78;;
64235;SDS011;50564;47.402;9.740;2024-01-27T10:57:23;10.05;;;5.72;;
64235;SDS011;50564;47.402;9.740;2024-01-27T11:02:24;9.55;;;5.30;;
64235;SDS011;50564;47.402;9.740;2024-01-27T11:07:25;10.32;;;5.72;;
64235;SDS011;50564;47.402;9.740;2024-01-27T11:12:26;11.48;;;6.70;;
64235;SDS011;50564;47.402;9.740;2024-01-27T11:17:26;7.30;;;5.32;;
64235;SDS011;50564;47.402;9.740;2024-01-27T11:22:27;9.95;;;4.75;;
64235;SDS011;50564;47.402;9.740;2024-01-27T11:27:28;8.25;;;5.00;;
64235;SDS011;50564;47.402;9.740;2024-01-27T11:32:30;10.90;;;5.28;;
64235;SDS011;50564;47.402;9.740;2024-01-27T11:37:31;11.80;;;5.50;;
64235;SDS011;50564;47.402;9.740;2024-01-27T11:42:31;11.05;;;5.18;;
64235;SDS011;50564;47.402;9.740;2024-01-27T11:47:32;9.73;;;5.38;;
64235;SDS011;50564;47.402;9.740;2024-01-27T11:52:33;13.90;;;6.68;;
64235;SDS011;50564;47.402;9.740;2024-01-27T11:57:33;8.10;;;5.55;;
64235;SDS011;50564;47.402;9.740;2024-01-27T12:02:34;8.38;;;5.18;;
64235;SDS011;50564;47.402;9.740;2024-01-27T12:07:34;8.25;;;5.53;;
64235;SDS011;50564;47.402;9.740;2024-01-27T12:12:35;8.00;;;5.03;;
64235;SDS011;50564;47.402;9.740;2024-01-27T12:17:36;9.13;;;5.32;;
64235;SDS011;50564;47.402;9.740;2024-01-27T12:22:36;11.55;;;6.47;;
64235;SDS011;50564;47.402;9.740;2024-01-27T12:27:38;10.77;;;6.35;;
64235;SDS011;50564;47.402;9.740;2024-01-27T12:32:39;9.38;;;5.05;;
64235;SDS011;50564;47.402;9.740;2024-01-27T12:37:40;8.27;;;4.68;;
64235;SDS011;50564;47.402;9.740;2024-01-27T12:42:40;8.38;;;4.43;;
64235;SDS011;50564;47.402;9.740;2024-01-27T12:47:41;7.65;;;5.03;;
64235;SDS011;50564;47.402;9.740;2024-01-27T12:52:42;7.40;;;4.85;;
64235;SDS011;50564;47.402;9.740;2024-01-27T12:57:42;8.25;;;5.50;;
64235;SDS011;50564;47.402;9.740;2024-01-27T13:02:43;10.45;;;4.45;;
64235;SDS011;50564;47.402;9.740;2024-01-27T13:07:44;9.00;;;4.28;;
64235;SDS011;50564;47.402;9.740;2024-01-27T13:12:45;5.68;;;3.60;;
64235;SDS011;50564;47.402;9.740;2024-01-27T13:17:45;5.68;;;3.75;;
64235;SDS011;50564;47.402;9.740;2024-01-27T13:22:46;7.28;;;3.75;;
64235;SDS011;50564;47.402;9.740;2024-01-27T13:27:47;6.70;;;3.20;;
64235;SDS011;50564;47.402;9.740;2024-01-27T13:32:48;7.80;;;3.85;;
64235;SDS011;50564;47.402;9.740;2024-01-27T13:37:48;5.47;;;3.20;;
64235;SDS011;50564;47.402;9.740;2024-01-27T13:42:49;5.03;;;2.95;;
64235;SDS011;50564;47.402;9.740;2024-01-27T13:47:49;6.55;;;3.60;;
64235;SDS011;50564;47.402;9.740;2024-01-27T13:52:50;4.70;;;2.75;;
64235;SDS011;50564;47.402;9.740;2024-01-27T13:57:51;5.35;;;3.13;;
64235;SDS011;50564;47.402;9.740;2024-01-27T14:02:52;6.25;;;3.92;;
64235;SDS011;50564;47.402;9.740;2024-01-27T14:07:52;7.50;;;3.83;;
64235;SDS011;50564;47.402;9.740;2024-01-27T14:12:53;5.18;;;3.03;;
64235;SDS011;50564;47.402;9.740;2024-01-27T14:17:53;8.25;;;3.50;;
64235;SDS011;50564;47.402;9.740;2024-01-27T14:22:55;7.93;;;4.47;;
64235;SDS011;50564;47.402;9.740;2024-01-27T14:27:58;6.80;;;3.83;;
64235;SDS011;50564;47.402;9.740;2024-01-27T14:32:58;7.20;;;3.80;;
64235;SDS011;50564;47.402;9.740;2024-01-27T14:37:59;6.65;;;3.75;;
64235;SDS011;50564;47.402;9.740;2024-01-27T14:43:01;8.63;;;3.90;;
64235;SDS011;50564;47.402;9.740;2024-01-27T14:48:08;7.43;;;3.97;;
64235;SDS011;50564;47.402;9.740;2024-01-27T14:53:09;9.32;;;4.60;;
64235;SDS011;50564;47.402;9.740;2024-01-27T14:58:10;7.53;;;3.40;;
64235;SDS011;50564;47.402;9.740;2024-01-27T15:03:11;8.90;;;5.13;;
64235;SDS011;50564;47.402;9.740;2024-01-27T15:08:13;8.73;;;4.43;;
64235;SDS011;50564;47.402;9.740;2024-01-27T15:13:14;8.60;;;3.20;;
64235;SDS011;50564;47.402;9.740;2024-01-27T15:18:17;6.10;;;3.20;;
64235;SDS011;50564;47.402;9.740;2024-01-27T15:23:17;6.28;;;4.07;;
64235;SDS011;50564;47.402;9.740;2024-01-27T15:28:19;5.72;;;3.20;;
64235;SDS011;50564;47.402;9.740;2024-01-27T15:33:19;6.63;;;3.75;;
64235;SDS011;50564;47.402;9.740;2024-01-27T15:38:20;9.52;;;4.25;;
64235;SDS011;50564;47.402;9.740;2024-01-27T15:43:21;8.52;;;4.30;;
64235;SDS011;50564;47.402;9.740;2024-01-27T15:48:21;5.68;;;3.30;;
64235;SDS011;50564;47.402;9.740;2024-01-27T15:53:22;5.03;;;3.20;;
64235;SDS011;50564;47.402;9.740;2024-01-27T15:58:23;4.63;;;2.90;;
64235;SDS011;50564;47.402;9.740;2024-01-27T16:03:24;5.35;;;2.70;;
64235;SDS011;50564;47.402;9.740;2024-01-27T16:08:25;5.82;;;3.08;;
64235;SDS011;50564;47.402;9.740;2024-01-27T16:13:25;4.47;;;2.58;;
64235;SDS011;50564;47.402;9.740;2024-01-27T16:18:26;6.60;;;2.83;;
64235;SDS011;50564;47.402;9.740;2024-01-27T16:23:27;6.30;;;3.60;;
64235;SDS011;50564;47.402;9.740;2024-01-27T16:28:27;6.00;;;2.85;;
64235;SDS011;50564;47.402;9.740;2024-01-27T16:33:28;3.10;;;2.33;;
64235;SDS011;50564;47.402;9.740;2024-01-27T16:38:29;7.22;;;3.28;;
64235;SDS011;50564;47.402;9.740;2024-01-27T16:43:30;12.07;;;5.78;;
64235;SDS011;50564;47.402;9.740;2024-01-27T16:48:30;20.23;;;12.05;;
64235;SDS011;50564;47.402;9.740;2024-01-27T16:53:31;11.80;;;7.90;;
64235;SDS011;50564;47.402;9.740;2024-01-27T16:58:34;10.90;;;7.05;;
64235;SDS011;50564;47.402;9.740;2024-01-27T17:03:34;14.68;;;10.70;;
64235;SDS011;50564;47.402;9.740;2024-01-27T17:08:35;14.30;;;10.07;;
64235;SDS011;50564;47.402;9.740;2024-01-27T17:13:36;17.27;;;10.02;;
64235;SDS011;50564;47.402;9.740;2024-01-27T17:18:37;22.77;;;14.80;;
64235;SDS011;50564;47.402;9.740;2024-01-27T17:23:37;10.75;;;7.10;;
64235;SDS011;50564;47.402;9.740;2024-01-27T17:28:38;5.05;;;3.08;;
64235;SDS011;50564;47.402;9.740;2024-01-27T17:33:39;10.73;;;9.55;;
64235;SDS011;50564;47.402;9.740;2024-01-27T17:38:40;13.13;;;11.82;;
64235;SDS011;50564;47.402;9.740;2024-01-27T17:43:41;5.05;;;4.10;;
64235;SDS011;50564;47.402;9.740;2024-01-27T17:48:42;26.30;;;22.00;;
64235;SDS011;50564;47.402;9.740;2024-01-27T17:53:43;34.13;;;30.42;;
64235;SDS011;50564;47.402;9.740;2024-01-27T17:58:44;13.23;;;10.13;;
64235;SDS011;50564;47.402;9.740;2024-01-27T18:03:44;24.38;;;21.73;;
64235;SDS011;50564;47.402;9.740;2024-01-27T18:08:46;25.98;;;22.70;;
64235;SDS011;50564;47.402;9.740;2024-01-27T18:13:46;12.73;;;9.20;;
64235;SDS011;50564;47.402;9.740;2024-01-27T18:18:49;6.70;;;5.20;;
64235;SDS011;50564;47.402;9.740;2024-01-27T18:23:49;7.50;;;5.13;;
64235;SDS011;50564;47.402;9.740;2024-01-27T18:28:50;5.38;;;2.78;;
64235;SDS011;50564;47.402;9.740;2024-01-27T18:33:51;3.45;;;2.28;;
64235;SDS011;50564;47.402;9.740;2024-01-27T18:38:51;2.70;;;1.92;;
64235;SDS011;50564;47.402;9.740;2024-01-27T18:43:54;4.50;;;2.33;;
64235;SDS011;50564;47.402;9.740;2024-01-27T18:48:55;2.80;;;1.83;;
64235;SDS011;50564;47.402;9.740;2024-01-27T18:53:55;3.95;;;2.10;;
64235;SDS011;50564;47.402;9.740;2024-01-27T18:58:56;4.38;;;3.13;;
64235;SDS011;50564;47.402;9.740;2024-01-27T19:03:56;4.57;;;2.95;;
64235;SDS011;50564;47.402;9.740;2024-01-27T19:08:57;6.82;;;4.55;;
64235;SDS011;50564;47.402;9.740;2024-01-27T19:13:59;4.07;;;3.15;;
64235;SDS011;50564;47.402;9.740;2024-01-27T19:19:03;2.80;;;2.45;;
64235;SDS011;50564;47.402;9.740;2024-01-27T19:24:04;3.20;;;2.08;;
64235;SDS011;50564;47.402;9.740;2024-01-27T19:29:05;3.42;;;2.40;;
64235;SDS011;50564;47.402;9.740;2024-01-27T19:34:05;3.72;;;2.65;;
64235;SDS011;50564;47.402;9.740;2024-01-27T19:39:06;5.90;;;3.20;;
64235;SDS011;50564;47.402;9.740;2024-01-27T19:44:06;6.35;;;3.55;;
64235;SDS011;50564;47.402;9.740;2024-01-27T19:49:07;9.57;;;5.68;;
64235;SDS011;50564;47.402;9.740;2024-01-27T19:54:10;5.80;;;2.97;;
64235;SDS011;50564;47.402;9.740;2024-01-27T19:59:10;3.00;;;1.67;;
64235;SDS011;50564;47.402;9.740;2024-01-27T20:04:11;3.10;;;1.30;;
64235;SDS011;50564;47.402;9.740;2024-01-27T20:09:12;3.00;;;1.73;;
64235;SDS011;50564;47.402;9.740;2024-01-27T20:14:13;3.83;;;2.47;;
64235;SDS011;50564;47.402;9.740;2024-01-27T20:19:14;2.65;;;1.13;;
64235;SDS011;50564;47.402;9.740;2024-01-27T20:24:15;1.75;;;1.10;;
64235;SDS011;50564;47.402;9.740;2024-01-27T20:29:17;1.90;;;1.10;;
64235;SDS011;50564;47.402;9.740;2024-01-27T20:34:17;1.80;;;1.08;;
64235;SDS011;50564;47.402;9.740;2024-01-27T20:39:18;1.95;;;1.30;;
64235;SDS011;50564;47.402;9.740;2024-01-27T20:44:19;1.65;;;1.20;;
64235;SDS011;50564;47.402;9.740;2024-01-27T20:49:19;2.58;;;1.27;;
64235;SDS011;50564;47.402;9.740;2024-01-27T20:54:21;2.38;;;1.20;;
64235;SDS011;50564;47.402;9.740;2024-01-27T20:59:22;4.30;;;2.30;;
64235;SDS011;50564;47.402;9.740;2024-01-27T21:04:22;5.93;;;2.88;;
64235;SDS011;50564;47.402;9.740;2024-01-27T21:09:25;4.53;;;2.60;;
64235;SDS011;50564;47.402;9.740;2024-01-27T21:14:26;1.88;;;1.50;;
64235;SDS011;50564;47.402;9.740;2024-01-27T21:19:29;3.15;;;1.40;;
64235;SDS011;50564;47.402;9.740;2024-01-27T21:24:31;3.28;;;1.50;;
64235;SDS011;50564;47.402;9.740;2024-01-27T21:29:32;4.88;;;1.50;;
64235;SDS011;50564;47.402;9.740;2024-01-27T21:34:32;2.45;;;1.30;;
64235;SDS011;50564;47.402;9.740;2024-01-27T21:39:33;2.42;;;1.50;;
64235;SDS011;50564;47.402;9.740;2024-01-27T21:44:34;2.67;;;1.98;;
64235;SDS011;50564;47.402;9.740;2024-01-27T21:49:37;4.78;;;2.42;;
64235;SDS011;50564;47.402;9.740;2024-01-27T21:54:39;3.80;;;2.60;;
64235;SDS011;50564;47.402;9.740;2024-01-27T21:59:40;2.92;;;2.28;;
64235;SDS011;50564;47.402;9.740;2024-01-27T22:04:40;3.63;;;2.15;;
64235;SDS011;50564;47.402;9.740;2024-01-27T22:09:41;3.03;;;2.10;;
64235;SDS011;50564;47.402;9.740;2024-01-27T22:14:42;4.35;;;2.92;;
64235;SDS011;50564;47.402;9.740;2024-01-27T22:19:42;5.70;;;4.40;;
64235;SDS011;50564;47.402;9.740;2024-01-27T22:24:43;4.45;;;3.03;;
64235;SDS011;50564;47.402;9.740;2024-01-27T22:29:43;3.45;;;2.20;;
64235;SDS011;50564;47.402;9.740;2024-01-27T22:34:44;2.50;;;1.80;;
64235;SDS011;50564;47.402;9.740;2024-01-27T22:39:46;5.43;;;3.50;;
64235;SDS011;50564;47.402;9.740;2024-01-27T22:44:47;7.80;;;4.57;;
64235;SDS011;50564;47.402;9.740;2024-01-27T22:49:48;8.23;;;5.00;;
64235;SDS011;50564;47.402;9.740;2024-01-27T22:54:48;7.25;;;4.93;;
64235;SDS011;50564;47.402;9.740;2024-01-27T22:59:49;7.07;;;4.47;;
64235;SDS011;50564;47.402;9.740;2024-01-27T23:04:49;7.15;;;3.70;;
64235;SDS011;50564;47.402;9.740;2024-01-27T23:09:50;5.40;;;3.65;;
64235;SDS011;50564;47.402;9.740;2024-01-27T23:14:50;4.63;;;2.50;;
64235;SDS011;50564;47.402;9.740;2024-01-27T23:19:51;2.20;;;1.20;;
64235;SDS011;50564;47.402;9.740;2024-01-27T23:24:52;2.22;;;1.23;;
64235;SDS011;50564;47.402;9.740;2024-01-27T23:29:53;2.22;;;1.42;;
64235;SDS011;50564;47.402;9.740;2024-01-27T23:34:53;4.22;;;2.25;;
64235;SDS011;50564;47.402;9.740;2024-01-27T23:39:54;3.25;;;1.90;;
64235;SDS011;50564;47.402;9.740;2024-01-27T23:44:54;4.15;;;2.03;;
64235;SDS011;50564;47.402;9.740;2024-01-27T23:49:55;4.60;;;2.53;;
64235;SDS011;50564;47.402;9.740;2024-01-27T23:54:56;2.80;;;1.77;;
64235;SDS011;50564;47.402;9.740;2024-01-27T23:59:56;2.88;;;1.55;;
